Time;durP1;ratioP1;P1;durP2;ratioP2;P2;SDS_P1;SDS_P2;PMS_P1;PMS_P2;Temp;Humidity;BMP_temperature;BMP_pressure;BME280_temperature;BME280_humidity;BME280_pressure;Samples;Min_cycle;Max_cycle;Signal;HPM_P1;HPM_P2
2021/08/03 00:01:39;;;;;;;7.15;3.28;;;;;;;;;;5021770;28;20022;-88
2021/08/03 00:04:05;;;;;;;7.65;3.13;;;;;;;;;;5013970;28;20095;-88
2021/08/03 00:06:31;;;;;;;5.95;3.30;;;;;;;;;;5039679;28;20330;-88
2021/08/03 00:08:57;;;;;;;6.22;3.67;;;;;;;;;;5022731;28;20384;-88
2021/08/03 00:11:23;;;;;;;8.48;3.78;;;;;;;;;;5022871;28;20026;-88
2021/08/03 00:13:49;;;;;;;7.25;3.90;;;;;;;;;;5009786;28;20025;-88
2021/08/03 00:16:14;;;;;;;10.52;4.63;;;;;;;;;;5010366;28;20049;-88
2021/08/03 00:18:40;;;;;;;7.45;4.28;;;;;;;;;;5012705;28;20079;-87
2021/08/03 00:21:07;;;;;;;9.57;4.72;;;;;;;;;;5010498;28;20032;-88
2021/08/03 00:23:33;;;;;;;18.00;5.85;;;;;;;;;;5005835;28;20040;-88
2021/08/03 00:25:58;;;;;;;8.35;4.75;;;;;;;;;;5015345;28;20031;-88
2021/08/03 00:28:23;;;;;;;6.70;4.15;;;;;;;;;;5015849;28;20037;-88
2021/08/03 00:30:49;;;;;;;6.28;3.78;;;;;;;;;;5011408;28;20022;-87
2021/08/03 00:33:15;;;;;;;6.93;3.90;;;;;;;;;;5010073;28;20030;-87
2021/08/03 00:35:40;;;;;;;9.13;4.57;;;;;;;;;;5014191;28;20020;-88
2021/08/03 00:38:06;;;;;;;10.27;4.47;;;;;;;;;;5023766;28;20101;-87
2021/08/03 00:40:32;;;;;;;7.25;3.88;;;;;;;;;;5024503;28;20026;-87
2021/08/03 00:42:57;;;;;;;12.32;4.40;;;;;;;;;;5022867;28;20576;-88
2021/08/03 00:45:22;;;;;;;9.52;4.93;;;;;;;;;;5019501;28;20030;-87
2021/08/03 00:47:48;;;;;;;7.32;4.28;;;;;;;;;;5012207;28;20022;-87
2021/08/03 00:50:13;;;;;;;9.52;4.72;;;;;;;;;;5013539;28;20032;-87
2021/08/03 00:52:39;;;;;;;10.02;4.97;;;;;;;;;;5024043;28;20017;-88
2021/08/03 00:55:04;;;;;;;11.32;4.50;;;;;;;;;;5019117;28;20449;-88
2021/08/03 00:57:30;;;;;;;10.27;4.40;;;;;;;;;;5015016;28;20076;-88
2021/08/03 00:59:56;;;;;;;7.45;4.72;;;;;;;;;;5026788;28;20022;-88
2021/08/03 01:02:21;;;;;;;7.40;4.28;;;;;;;;;;5022995;28;20109;-88
2021/08/03 01:04:46;;;;;;;7.22;4.45;;;;;;;;;;5013882;28;20056;-88
2021/08/03 01:07:16;;;;;;;9.25;4.45;;;;;;;;;;5019089;28;20021;-88
2021/08/03 01:09:47;;;;;;;6.50;4.07;;;;;;;;;;5059785;28;20029;-88
2021/08/03 01:12:15;;;;;;;10.23;4.32;;;;;;;;;;5017645;28;20036;-87
2021/08/03 01:15:00;;;;;;;11.23;4.72;;;;;;;;;;5046620;28;20462;-87
2021/08/03 01:17:45;;;;;;;9.32;4.45;;;;;;;;;;5021441;28;20029;-88
2021/08/03 01:20:20;;;;;;;9.15;4.57;;;;;;;;;;5018255;28;20029;-88
2021/08/03 01:22:59;;;;;;;9.10;4.65;;;;;;;;;;5020423;28;20069;-87
2021/08/03 01:25:43;;;;;;;10.65;4.90;;;;;;;;;;5019340;28;20026;-88
2021/08/03 01:28:12;;;;;;;7.70;4.43;;;;;;;;;;5052820;28;20018;-88
2021/08/03 01:30:37;;;;;;;5.90;4.15;;;;;;;;;;5046589;28;20057;-88
2021/08/03 01:33:04;;;;;;;9.02;4.63;;;;;;;;;;5012556;28;20535;-87
2021/08/03 01:35:30;;;;;;;8.98;4.88;;;;;;;;;;5020308;28;20367;-88
2021/08/03 01:37:58;;;;;;;9.80;4.85;;;;;;;;;;5027290;28;20033;-87
2021/08/03 01:40:25;;;;;;;8.05;4.72;;;;;;;;;;5024042;28;20029;-88
2021/08/03 01:42:50;;;;;;;7.65;4.50;;;;;;;;;;5022062;28;20037;-89
2021/08/03 01:45:18;;;;;;;11.30;4.45;;;;;;;;;;5012982;28;20374;-88
2021/08/03 01:47:43;;;;;;;13.07;5.15;;;;;;;;;;5020866;28;20481;-87
2021/08/03 01:50:09;;;;;;;7.38;4.57;;;;;;;;;;5014531;28;20029;-87
2021/08/03 01:52:34;;;;;;;9.00;5.07;;;;;;;;;;5012479;28;20056;-88
2021/08/03 01:55:00;;;;;;;9.43;5.40;;;;;;;;;;5023537;28;20017;-87
2021/08/03 01:57:25;;;;;;;10.73;5.68;;;;;;;;;;5026395;28;20041;-87
2021/08/03 01:59:54;;;;;;;10.85;5.45;;;;;;;;;;5012510;28;20032;-88
2021/08/03 02:02:19;;;;;;;10.32;5.43;;;;;;;;;;5019738;28;20021;-87
2021/08/03 02:04:46;;;;;;;11.15;5.30;;;;;;;;;;5014498;28;20022;-87
2021/08/03 02:07:12;;;;;;;8.48;5.15;;;;;;;;;;5020739;28;20050;-88
2021/08/03 02:09:37;;;;;;;9.93;5.65;;;;;;;;;;5026505;28;20017;-88
2021/08/03 02:12:03;;;;;;;10.73;5.20;;;;;;;;;;5012466;28;20500;-88
2021/08/03 02:14:28;;;;;;;15.13;6.05;;;;;;;;;;5026134;28;20036;-87
2021/08/03 02:16:53;;;;;;;15.38;5.68;;;;;;;;;;5012960;28;20014;-86
2021/08/03 02:19:18;;;;;;;9.20;5.50;;;;;;;;;;5017366;28;20508;-87
2021/08/03 02:21:45;;;;;;;10.55;4.95;;;;;;;;;;5012109;28;20088;-88
2021/08/03 02:24:10;;;;;;;9.30;5.07;;;;;;;;;;5019872;28;20101;-86
2021/08/03 02:26:35;;;;;;;9.43;5.32;;;;;;;;;;5019648;28;20525;-87
2021/08/03 02:29:00;;;;;;;10.27;5.63;;;;;;;;;;5012067;28;20025;-87
2021/08/03 02:31:39;;;;;;;9.27;5.50;;;;;;;;;;5013197;28;20049;-87
2021/08/03 02:34:25;;;;;;;11.52;6.47;;;;;;;;;;5021328;28;20037;-88
2021/08/03 02:36:52;;;;;;;12.23;6.03;;;;;;;;;;5043535;28;20033;-88
2021/08/03 02:39:18;;;;;;;8.90;5.10;;;;;;;;;;5019521;28;20048;-87
2021/08/03 02:41:45;;;;;;;8.80;5.43;;;;;;;;;;5022992;28;20064;-88
2021/08/03 02:44:11;;;;;;;7.50;5.18;;;;;;;;;;5016757;28;20017;-87
2021/08/03 02:46:41;;;;;;;13.95;6.28;;;;;;;;;;5018053;28;20088;-88
2021/08/03 02:49:08;;;;;;;10.10;5.70;;;;;;;;;;5019759;28;20022;-88
2021/08/03 02:51:35;;;;;;;14.05;5.78;;;;;;;;;;5020867;28;20022;-89
2021/08/03 02:54:21;;;;;;;13.02;6.13;;;;;;;;;;5013263;28;20084;-89
2021/08/03 02:56:47;;;;;;;12.77;5.93;;;;;;;;;;5024397;28;20030;-89
2021/08/03 02:59:13;;;;;;;15.20;5.78;;;;;;;;;;5013205;28;20037;-90
2021/08/03 03:01:40;;;;;;;11.88;5.65;;;;;;;;;;5011793;28;20026;-89
2021/08/03 03:04:16;;;;;;;13.63;6.38;;;;;;;;;;5015914;28;20125;-88
2021/08/03 03:06:43;;;;;;;11.75;5.68;;;;;;;;;;5024018;28;20013;-88
2021/08/03 03:09:08;;;;;;;11.93;6.25;;;;;;;;;;5023002;28;20385;-89
2021/08/03 03:11:36;;;;;;;13.95;5.75;;;;;;;;;;5011874;28;20052;-89
2021/08/03 03:14:02;;;;;;;10.68;5.82;;;;;;;;;;5011832;28;20022;-89
2021/08/03 03:16:29;;;;;;;16.90;5.82;;;;;;;;;;5015994;28;20036;-89
2021/08/03 03:18:55;;;;;;;10.40;5.28;;;;;;;;;;5015081;28;20018;-89
2021/08/03 03:21:21;;;;;;;14.35;5.80;;;;;;;;;;5013978;28;20021;-89
2021/08/03 03:23:48;;;;;;;12.88;5.85;;;;;;;;;;5020263;28;20085;-89
2021/08/03 03:26:13;;;;;;;15.57;5.95;;;;;;;;;;5010968;28;20029;-89
2021/08/03 03:28:40;;;;;;;12.32;5.93;;;;;;;;;;5011914;28;20029;-89
2021/08/03 03:31:05;;;;;;;11.25;5.93;;;;;;;;;;5019245;28;20021;-89
2021/08/03 03:33:31;;;;;;;12.40;6.40;;;;;;;;;;5015141;28;20017;-89
2021/08/03 03:35:58;;;;;;;9.98;5.75;;;;;;;;;;5022216;28;20039;-88
2021/08/03 03:38:25;;;;;;;10.32;5.55;;;;;;;;;;5017668;28;20029;-89
2021/08/03 03:40:51;;;;;;;12.45;5.60;;;;;;;;;;5045326;28;20164;-89
2021/08/03 03:43:18;;;;;;;10.20;5.55;;;;;;;;;;5051840;28;20529;-89
2021/08/03 03:45:45;;;;;;;17.08;5.85;;;;;;;;;;5021676;28;20079;-89
2021/08/03 03:48:12;;;;;;;15.02;6.55;;;;;;;;;;5018919;28;20048;-89
2021/08/03 03:50:44;;;;;;;11.48;5.60;;;;;;;;;;5022733;28;20041;-88
2021/08/03 03:53:09;;;;;;;;;;;;;;;;;;5011560;28;20116;-88
2021/08/03 03:55:35;;;;;;;11.77;6.03;;;;;;;;;;5011215;28;19948;-89
2021/08/03 03:58:01;;;;;;;12.60;6.10;;;;;;;;;;5013586;28;20021;-88
2021/08/03 04:00:28;;;;;;;11.68;6.25;;;;;;;;;;5019270;28;20018;-89
2021/08/03 04:02:53;;;;;;;11.48;6.28;;;;;;;;;;5018143;28;20048;-89
2021/08/03 04:05:19;;;;;;;10.55;6.28;;;;;;;;;;5015361;28;20018;-89
2021/08/03 04:07:49;;;;;;;10.82;5.18;;;;;;;;;;5011470;28;20014;-89
2021/08/03 04:10:17;;;;;;;12.02;5.65;;;;;;;;;;5013148;28;20026;-89
2021/08/03 04:12:42;;;;;;;10.55;5.60;;;;;;;;;;5015303;28;20030;-89
2021/08/03 04:15:08;;;;;;;12.30;6.18;;;;;;;;;;5010984;28;20524;-90
2021/08/03 04:17:33;;;;;;;10.32;6.00;;;;;;;;;;5010470;28;21497;-88
2021/08/03 04:19:58;;;;;;;12.40;5.90;;;;;;;;;;5019570;28;20061;-89
2021/08/03 04:22:25;;;;;;;13.13;5.85;;;;;;;;;;5021914;28;20182;-88
2021/08/03 04:24:50;;;;;;;11.77;6.10;;;;;;;;;;5019061;28;20029;-89
2021/08/03 04:27:16;;;;;;;9.88;5.78;;;;;;;;;;5022434;28;20033;-89
2021/08/03 04:29:41;;;;;;;9.60;5.57;;;;;;;;;;5014754;28;20492;-89
2021/08/03 04:32:07;;;;;;;9.52;6.22;;;;;;;;;;5022461;28;20018;-88
2021/08/03 04:34:33;;;;;;;12.07;6.18;;;;;;;;;;5026318;28;20112;-88
2021/08/03 04:36:59;;;;;;;11.65;5.97;;;;;;;;;;5021138;28;20022;-88
2021/08/03 04:39:24;;;;;;;11.13;6.22;;;;;;;;;;5020744;28;20381;-89
2021/08/03 04:41:49;;;;;;;11.48;5.85;;;;;;;;;;5024483;28;20484;-88
2021/08/03 04:44:15;;;;;;;10.38;6.15;;;;;;;;;;5025921;28;20021;-88
2021/08/03 04:46:41;;;;;;;12.18;6.18;;;;;;;;;;5023449;28;20489;-89
2021/08/03 04:49:06;;;;;;;12.13;5.93;;;;;;;;;;5024994;28;20105;-89
2021/08/03 04:51:31;;;;;;;14.75;6.13;;;;;;;;;;5014936;28;20033;-89
2021/08/03 04:53:57;;;;;;;12.15;6.15;;;;;;;;;;5030781;28;20014;-89
2021/08/03 04:56:22;;;;;;;10.55;5.97;;;;;;;;;;5021113;28;20388;-89
2021/08/03 04:58:47;;;;;;;13.43;6.28;;;;;;;;;;5020281;28;20112;-88
2021/08/03 05:01:12;;;;;;;11.40;6.20;;;;;;;;;;5017243;28;20060;-89
2021/08/03 05:03:37;;;;;;;12.15;5.20;;;;;;;;;;5014203;28;20026;-89
2021/08/03 05:06:03;;;;;;;12.18;6.45;;;;;;;;;;5014488;28;20124;-89
2021/08/03 05:08:28;;;;;;;11.80;5.88;;;;;;;;;;5020667;28;20036;-89
2021/08/03 05:10:53;;;;;;;10.02;6.38;;;;;;;;;;5026501;28;20029;-89
2021/08/03 05:13:18;;;;;;;11.15;6.03;;;;;;;;;;5020235;28;20033;-89
2021/08/03 05:15:43;;;;;;;11.40;5.88;;;;;;;;;;5020016;28;20379;-89
2021/08/03 05:18:08;;;;;;;12.75;5.60;;;;;;;;;;5019087;28;20056;-89
2021/08/03 05:20:34;;;;;;;10.55;5.90;;;;;;;;;;5017208;28;20041;-89
2021/08/03 05:22:59;;;;;;;12.43;5.90;;;;;;;;;;5022561;28;20033;-89
2021/08/03 05:25:25;;;;;;;14.25;6.03;;;;;;;;;;5020337;28;20516;-89
2021/08/03 05:27:50;;;;;;;9.23;5.93;;;;;;;;;;5025102;28;20026;-89
2021/08/03 05:30:15;;;;;;;15.98;5.88;;;;;;;;;;5014744;28;20030;-89
2021/08/03 05:32:41;;;;;;;10.98;5.75;;;;;;;;;;5011126;28;20112;-88
2021/08/03 05:35:07;;;;;;;13.05;6.47;;;;;;;;;;5013411;28;20029;-88
2021/08/03 05:37:32;;;;;;;12.13;6.60;;;;;;;;;;5016933;28;20036;-88
2021/08/03 05:39:59;;;;;;;12.32;6.82;;;;;;;;;;5017276;28;20021;-89
2021/08/03 05:42:24;;;;;;;14.50;6.93;;;;;;;;;;5028484;28;20029;-88
2021/08/03 05:44:50;;;;;;;14.02;6.20;;;;;;;;;;5016469;28;20029;-89
2021/08/03 05:47:15;;;;;;;13.93;6.93;;;;;;;;;;5018331;28;20033;-89
2021/08/03 05:49:41;;;;;;;11.55;5.75;;;;;;;;;;5019103;28;20026;-89
2021/08/03 05:52:06;;;;;;;12.45;5.88;;;;;;;;;;5020955;28;20028;-88
2021/08/03 05:54:31;;;;;;;12.68;6.15;;;;;;;;;;5020098;28;20481;-89
2021/08/03 05:56:56;;;;;;;13.23;7.13;;;;;;;;;;5018060;28;20060;-90
2021/08/03 05:59:22;;;;;;;12.68;6.47;;;;;;;;;;5020132;28;20033;-89
2021/08/03 06:01:47;;;;;;;9.32;5.50;;;;;;;;;;5019120;28;20029;-88
2021/08/03 06:04:12;;;;;;;11.52;6.38;;;;;;;;;;5013694;28;20426;-89
2021/08/03 06:06:39;;;;;;;15.27;6.15;;;;;;;;;;5015398;28;20053;-90
2021/08/03 06:09:07;;;;;;;9.70;5.85;;;;;;;;;;5014836;28;20060;-89
2021/08/03 06:11:34;;;;;;;14.10;7.13;;;;;;;;;;5018793;28;20030;-89
2021/08/03 06:13:59;;;;;;;12.27;6.20;;;;;;;;;;5006788;28;20083;-89
2021/08/03 06:16:25;;;;;;;15.32;6.63;;;;;;;;;;5014929;28;20017;-89
2021/08/03 06:18:53;;;;;;;12.40;5.65;;;;;;;;;;5016892;28;20115;-90
2021/08/03 06:21:19;;;;;;;12.45;6.13;;;;;;;;;;5013531;28;20508;-90
2021/08/03 06:23:44;;;;;;;11.40;6.53;;;;;;;;;;5013054;28;20026;-89
2021/08/03 06:26:10;;;;;;;10.88;6.65;;;;;;;;;;5050733;28;20135;-89
2021/08/03 06:28:36;;;;;;;12.57;6.40;;;;;;;;;;5019180;28;20026;-89
2021/08/03 06:31:02;;;;;;;10.95;6.72;;;;;;;;;;4999436;28;20023;-89
2021/08/03 06:33:27;;;;;;;14.23;6.50;;;;;;;;;;5013093;28;20022;-90
2021/08/03 06:35:53;;;;;;;12.63;6.72;;;;;;;;;;5046165;28;20028;-90
2021/08/03 06:38:18;;;;;;;13.38;6.70;;;;;;;;;;5054293;28;20152;-90
2021/08/03 06:41:03;;;;;;;13.45;6.75;;;;;;;;;;5022197;28;20026;-90
2021/08/03 06:43:29;;;;;;;14.00;6.07;;;;;;;;;;5006606;28;20033;-89
2021/08/03 06:46:06;;;;;;;11.48;6.18;;;;;;;;;;5027693;28;20026;-90
2021/08/03 06:48:33;;;;;;;13.25;6.15;;;;;;;;;;5026090;28;20458;-89
2021/08/03 06:51:03;;;;;;;11.02;5.88;;;;;;;;;;5029042;28;20469;-89
2021/08/03 06:53:29;;;;;;;12.10;6.25;;;;;;;;;;5051381;28;20069;-89
2021/08/03 06:55:55;;;;;;;15.18;8.05;;;;;;;;;;5012604;28;20473;-90
2021/08/03 06:58:27;;;;;;;11.90;6.13;;;;;;;;;;5012381;28;20104;-90
2021/08/03 07:00:53;;;;;;;16.47;6.93;;;;;;;;;;5019917;28;20017;-90
2021/08/03 07:03:23;;;;;;;13.35;6.93;;;;;;;;;;5012331;28;20036;-90
2021/08/03 07:05:53;;;;;;;15.75;6.93;;;;;;;;;;5012425;28;20028;-89
2021/08/03 07:08:18;;;;;;;15.68;7.65;;;;;;;;;;5016224;28;20137;-89
2021/08/03 07:10:44;;;;;;;13.70;7.20;;;;;;;;;;5024818;28;20112;-90
2021/08/03 07:13:11;;;;;;;15.85;7.55;;;;;;;;;;5014581;28;20010;-89
2021/08/03 07:15:37;;;;;;;12.93;7.20;;;;;;;;;;5014412;28;20018;-89
2021/08/03 07:18:02;;;;;;;17.40;8.48;;;;;;;;;;5013472;28;20022;-89
2021/08/03 07:20:29;;;;;;;18.42;8.15;;;;;;;;;;5012166;28;20061;-90
2021/08/03 07:22:55;;;;;;;14.48;7.82;;;;;;;;;;5012176;28;20018;-89
2021/08/03 07:25:20;;;;;;;20.45;8.73;;;;;;;;;;5011938;28;20022;-89
2021/08/03 07:27:46;;;;;;;15.52;7.60;;;;;;;;;;5019636;28;20016;-90
2021/08/03 07:30:11;;;;;;;16.05;7.15;;;;;;;;;;5012242;28;20041;-89
2021/08/03 07:32:37;;;;;;;16.13;8.23;;;;;;;;;;5023812;28;20029;-90
2021/08/03 07:35:02;;;;;;;17.13;8.23;;;;;;;;;;5012537;28;20022;-90
2021/08/03 07:37:28;;;;;;;17.88;8.23;;;;;;;;;;5028673;28;20026;-90
2021/08/03 07:39:53;;;;;;;16.35;8.80;;;;;;;;;;5023828;28;20033;-89
2021/08/03 07:42:18;;;;;;;15.48;8.63;;;;;;;;;;5019690;28;20093;-89
2021/08/03 07:44:43;;;;;;;18.33;8.27;;;;;;;;;;5012236;28;20512;-89
2021/08/03 07:47:09;;;;;;;17.55;8.65;;;;;;;;;;5019149;28;20034;-89
2021/08/03 07:49:34;;;;;;;15.77;8.27;;;;;;;;;;5011569;28;20040;-90
2021/08/03 07:51:59;;;;;;;16.60;9.02;;;;;;;;;;5011369;28;20388;-89
2021/08/03 07:54:24;;;;;;;16.33;8.30;;;;;;;;;;5017791;28;20026;-90
2021/08/03 07:56:50;;;;;;;18.35;8.13;;;;;;;;;;5014687;28;20021;-90
2021/08/03 07:59:16;;;;;;;13.27;7.97;;;;;;;;;;5021662;28;20029;-90
2021/08/03 08:01:41;;;;;;;17.88;8.60;;;;;;;;;;5024103;28;20022;-89
2021/08/03 08:04:06;;;;;;;15.18;8.02;;;;;;;;;;5022094;28;20376;-90
2021/08/03 08:06:31;;;;;;;16.13;7.03;;;;;;;;;;5024925;28;20033;-89
2021/08/03 08:08:57;;;;;;;18.30;7.45;;;;;;;;;;5024867;28;20443;-89
2021/08/03 08:11:23;;;;;;;15.45;7.57;;;;;;;;;;5029055;28;20036;-89
2021/08/03 08:13:48;;;;;;;14.30;7.93;;;;;;;;;;5015440;28;20121;-90
2021/08/03 08:16:13;;;;;;;12.82;7.63;;;;;;;;;;5015757;28;20049;-89
2021/08/03 08:18:38;;;;;;;12.95;7.80;;;;;;;;;;5015357;28;20038;-90
2021/08/03 08:21:04;;;;;;;15.88;8.90;;;;;;;;;;5017608;28;20465;-89
2021/08/03 08:23:29;;;;;;;19.85;8.75;;;;;;;;;;5015395;28;20025;-89
2021/08/03 08:25:55;;;;;;;16.23;8.85;;;;;;;;;;5021732;28;20040;-90
2021/08/03 08:28:20;;;;;;;20.67;8.10;;;;;;;;;;5023474;28;20033;-89
2021/08/03 08:30:45;;;;;;;22.38;8.90;;;;;;;;;;5015076;28;20133;-90
2021/08/03 08:33:11;;;;;;;19.00;8.43;;;;;;;;;;5015077;28;20755;-89
2021/08/03 08:35:37;;;;;;;15.25;8.35;;;;;;;;;;5015202;28;20022;-89
2021/08/03 08:38:02;;;;;;;19.90;8.63;;;;;;;;;;5027403;28;20025;-89
2021/08/03 08:40:27;;;;;;;21.00;8.88;;;;;;;;;;5020178;28;20084;-90
2021/08/03 08:42:53;;;;;;;16.58;8.52;;;;;;;;;;5025414;28;20017;-89
2021/08/03 08:45:18;;;;;;;15.93;8.48;;;;;;;;;;5014846;28;20034;-89
2021/08/03 08:47:45;;;;;;;15.27;7.90;;;;;;;;;;5028697;28;20029;-89
2021/08/03 08:50:10;;;;;;;17.42;7.72;;;;;;;;;;5015014;28;20033;-89
2021/08/03 08:52:37;;;;;;;17.80;8.23;;;;;;;;;;5014567;28;20033;-89
2021/08/03 08:55:03;;;;;;;15.40;7.65;;;;;;;;;;5014468;28;20543;-90
2021/08/03 08:57:28;;;;;;;21.05;8.13;;;;;;;;;;5021509;28;20385;-89
2021/08/03 08:59:53;;;;;;;17.70;8.30;;;;;;;;;;5019308;28;20029;-89
2021/08/03 09:02:39;;;;;;;16.58;7.88;;;;;;;;;;5014682;28;20045;-90
2021/08/03 09:05:05;;;;;;;15.60;8.18;;;;;;;;;;5063325;28;20025;-89
2021/08/03 09:07:30;;;;;;;13.45;7.05;;;;;;;;;;5014648;28;20442;-90
2021/08/03 09:09:55;;;;;;;17.38;8.10;;;;;;;;;;5023457;28;20029;-89
2021/08/03 09:12:32;;;;;;;17.67;7.85;;;;;;;;;;5023925;28;20421;-90
2021/08/03 09:14:57;;;;;;;14.75;7.88;;;;;;;;;;5023727;28;20071;-89
2021/08/03 09:17:26;;;;;;;14.05;7.65;;;;;;;;;;5015191;28;20021;-90
2021/08/03 09:19:52;;;;;;;17.42;7.90;;;;;;;;;;5014049;28;20128;-91
2021/08/03 09:22:24;;;;;;;16.02;7.35;;;;;;;;;;5014658;28;20113;-90
2021/08/03 09:25:09;;;;;;;16.63;8.45;;;;;;;;;;5017135;28;20351;-89
2021/08/03 09:27:39;;;;;;;14.98;8.05;;;;;;;;;;5014011;28;20504;-89
2021/08/03 09:30:16;;;;;;;18.73;7.53;;;;;;;;;;5023865;28;20037;-89
2021/08/03 09:32:42;;;;;;;11.45;6.07;;;;;;;;;;5017122;28;20037;-88
2021/08/03 09:35:11;;;;;;;15.73;6.78;;;;;;;;;;5014516;28;20017;-89
2021/08/03 09:37:37;;;;;;;13.25;6.75;;;;;;;;;;5013544;28;20026;-89
2021/08/03 09:40:04;;;;;;;13.23;6.43;;;;;;;;;;5015810;28;20668;-90
2021/08/03 09:42:29;;;;;;;18.45;6.80;;;;;;;;;;5019141;28;20022;-89
2021/08/03 09:44:54;;;;;;;12.35;5.97;;;;;;;;;;5016762;28;20087;-89
2021/08/03 09:47:20;;;;;;;10.93;5.68;;;;;;;;;;5024372;28;20513;-89
2021/08/03 09:49:48;;;;;;;9.85;4.65;;;;;;;;;;5046626;28;20017;-89
2021/08/03 09:52:21;;;;;;;10.27;5.85;;;;;;;;;;5019397;28;20119;-89
2021/08/03 09:54:47;;;;;;;13.50;7.20;;;;;;;;;;5013636;28;20474;-89
2021/08/03 09:57:23;;;;;;;11.45;6.65;;;;;;;;;;5057097;28;20075;-88
2021/08/03 09:59:49;;;;;;;13.93;6.88;;;;;;;;;;5021905;28;20013;-89
2021/08/03 10:02:18;;;;;;;13.35;6.70;;;;;;;;;;5014204;28;20492;-90
2021/08/03 10:04:44;;;;;;;17.30;6.55;;;;;;;;;;5016181;28;20032;-89
2021/08/03 10:07:09;;;;;;;13.63;6.18;;;;;;;;;;5012938;28;20026;-89
2021/08/03 10:09:35;;;;;;;10.45;5.95;;;;;;;;;;5012334;28;20022;-89
2021/08/03 10:12:00;;;;;;;10.30;5.75;;;;;;;;;;5019851;28;20045;-88
2021/08/03 10:14:25;;;;;;;14.15;6.43;;;;;;;;;;5016594;28;20025;-90
2021/08/03 10:16:51;;;;;;;14.07;6.38;;;;;;;;;;5017200;28;20014;-90
2021/08/03 10:19:21;;;;;;;15.65;6.80;;;;;;;;;;5054149;28;20014;-89
2021/08/03 10:21:48;;;;;;;11.05;6.53;;;;;;;;;;5047021;28;20021;-89
2021/08/03 10:24:18;;;;;;;12.90;5.50;;;;;;;;;;5010186;28;20030;-89
2021/08/03 10:27:02;;;;;;;10.07;5.70;;;;;;;;;;5016223;28;20074;-89
2021/08/03 10:29:27;;;;;;;8.35;4.38;;;;;;;;;;5043116;28;20071;-89
2021/08/03 10:31:53;;;;;;;10.05;4.57;;;;;;;;;;5007779;28;20117;-89
2021/08/03 10:34:57;;;;;;;10.25;3.92;;;;;;;;;;5025667;28;20044;-89
2021/08/03 10:37:23;;;;;;;12.90;4.50;;;;;;;;;;4926007;29;20048;-86
2021/08/03 10:39:53;;;;;;;8.55;4.13;;;;;;;;;;4928759;29;20030;-90
2021/08/03 10:42:19;;;;;;;8.93;4.32;;;;;;;;;;4973070;28;20437;-89
2021/08/03 10:44:46;;;;;;;9.85;4.82;;;;;;;;;;5020400;28;20017;-89
2021/08/03 10:47:30;;;;;;;8.88;4.78;;;;;;;;;;5021184;28;20014;-89
2021/08/03 10:49:56;;;;;;;11.13;5.30;;;;;;;;;;5049176;28;20021;-89
2021/08/03 10:52:40;;;;;;;13.20;5.35;;;;;;;;;;5016616;28;20033;-89
2021/08/03 10:55:05;;;;;;;8.50;4.95;;;;;;;;;;5012064;28;20418;-89
2021/08/03 10:57:30;;;;;;;10.55;4.20;;;;;;;;;;5020236;28;20103;-90
2021/08/03 11:00:02;;;;;;;8.48;4.40;;;;;;;;;;5017812;28;20024;-89
2021/08/03 11:02:30;;;;;;;7.07;3.35;;;;;;;;;;5012532;28;20017;-90
2021/08/03 11:04:56;;;;;;;10.52;4.18;;;;;;;;;;5045473;28;20025;-89
2021/08/03 11:07:25;;;;;;;6.45;3.63;;;;;;;;;;5010401;28;20037;-90
2021/08/03 11:09:54;;;;;;;8.63;5.55;;;;;;;;;;5023809;28;20057;-89
2021/08/03 11:12:37;;;;;;;11.35;5.80;;;;;;;;;;5022617;28;20065;-90
2021/08/03 11:15:21;;;;;;;9.93;5.95;;;;;;;;;;5044908;28;20014;-89
2021/08/03 11:17:50;;;;;;;10.93;7.50;;;;;;;;;;5044323;28;20109;-90
2021/08/03 11:20:34;;;;;;;8.02;6.05;;;;;;;;;;5032832;28;20381;-89
2021/08/03 11:22:59;;;;;;;12.45;6.85;;;;;;;;;;5013218;28;20025;-90
2021/08/03 11:25:25;;;;;;;11.15;6.93;;;;;;;;;;5015173;28;20438;-88
2021/08/03 11:27:50;;;;;;;14.95;8.93;;;;;;;;;;5011417;28;20060;-89
2021/08/03 11:30:16;;;;;;;13.52;8.48;;;;;;;;;;5011706;28;20022;-89
2021/08/03 11:32:41;;;;;;;12.40;7.90;;;;;;;;;;5015087;28;20029;-89
2021/08/03 11:35:06;;;;;;;11.32;6.88;;;;;;;;;;5019768;28;20104;-89
2021/08/03 11:37:38;;;;;;;11.70;6.82;;;;;;;;;;5012402;28;20083;-90
2021/08/03 11:40:03;;;;;;;10.30;7.22;;;;;;;;;;5002945;28;20504;-89
2021/08/03 11:42:36;;;;;;;13.73;8.80;;;;;;;;;;5008893;28;20067;-89
2021/08/03 11:45:21;;;;;;;13.60;8.27;;;;;;;;;;5010654;28;20029;-89
2021/08/03 11:47:55;;;;;;;16.05;7.57;;;;;;;;;;5021098;28;20208;-90
2021/08/03 11:50:29;;;;;;;11.48;7.75;;;;;;;;;;5011843;28;20087;-89
2021/08/03 11:53:07;;;;;;;15.02;9.40;;;;;;;;;;5020768;28;20465;-89
2021/08/03 11:55:36;;;;;;;14.35;8.82;;;;;;;;;;5045012;28;20013;-89
2021/08/03 11:58:02;;;;;;;13.20;7.80;;;;;;;;;;5026180;28;20026;-89
2021/08/03 12:00:27;;;;;;;15.05;7.65;;;;;;;;;;5013959;28;20021;-88
2021/08/03 12:02:54;;;;;;;15.73;8.65;;;;;;;;;;5027942;28;20048;-89
2021/08/03 12:05:21;;;;;;;17.83;7.70;;;;;;;;;;5013689;28;20481;-89
2021/08/03 12:07:54;;;;;;;12.95;9.02;;;;;;;;;;5010691;28;20033;-89
2021/08/03 12:10:23;;;;;;;15.25;10.00;;;;;;;;;;5011380;28;20014;-89
2021/08/03 12:12:49;;;;;;;12.30;6.93;;;;;;;;;;5010651;28;20172;-89
2021/08/03 12:15:16;;;;;;;11.63;8.30;;;;;;;;;;5018775;28;20076;-88
2021/08/03 12:17:42;;;;;;;11.60;7.63;;;;;;;;;;5020516;28;20025;-89
2021/08/03 12:20:27;;;;;;;16.38;9.85;;;;;;;;;;5018646;28;20100;-89
2021/08/03 12:22:53;;;;;;;10.32;6.85;;;;;;;;;;5031390;28;20126;-89
2021/08/03 12:25:20;;;;;;;13.00;6.88;;;;;;;;;;5011170;28;20116;-88
2021/08/03 12:27:45;;;;;;;12.68;7.40;;;;;;;;;;5013365;28;20026;-89
2021/08/03 12:30:29;;;;;;;13.00;8.00;;;;;;;;;;5019996;28;20143;-89
2021/08/03 12:32:55;;;;;;;11.43;7.18;;;;;;;;;;5023465;28;20029;-89
2021/08/03 12:35:20;;;;;;;9.95;6.38;;;;;;;;;;5017032;28;20176;-89
2021/08/03 12:37:45;;;;;;;10.32;5.68;;;;;;;;;;5013939;28;20018;-89
2021/08/03 12:40:32;;;;;;;9.10;5.80;;;;;;;;;;5016840;28;20020;-88
2021/08/03 12:42:58;;;;;;;4.72;3.72;;;;;;;;;;5011745;28;20026;-89
2021/08/03 12:45:24;;;;;;;10.25;4.88;;;;;;;;;;5014138;28;20022;-88
2021/08/03 12:47:54;;;;;;;12.02;6.05;;;;;;;;;;5019340;28;20108;-88
2021/08/03 12:50:20;;;;;;;6.80;4.25;;;;;;;;;;5014206;28;20022;-89
2021/08/03 12:52:47;;;;;;;9.63;4.15;;;;;;;;;;5047049;28;20053;-89
2021/08/03 12:55:14;;;;;;;9.38;4.68;;;;;;;;;;5053137;28;22105;-89
2021/08/03 12:57:46;;;;;;;7.03;4.45;;;;;;;;;;5019868;28;20064;-88
2021/08/03 13:00:26;;;;;;;7.80;4.60;;;;;;;;;;5051221;28;20104;-88
2021/08/03 13:02:52;;;;;;;8.90;4.38;;;;;;;;;;5053319;28;20400;-88
2021/08/03 13:05:17;;;;;;;8.25;4.00;;;;;;;;;;5015455;28;20025;-87
2021/08/03 13:07:42;;;;;;;7.30;4.28;;;;;;;;;;5020563;28;20521;-88
2021/08/03 13:10:07;;;;;;;5.60;3.78;;;;;;;;;;5018782;28;20584;-88
2021/08/03 13:12:33;;;;;;;6.53;3.58;;;;;;;;;;5024597;28;20531;-88
2021/08/03 13:14:58;;;;;;;4.90;3.20;;;;;;;;;;5018220;28;20709;-89
2021/08/03 13:17:23;;;;;;;4.07;2.88;;;;;;;;;;5038687;28;20018;-89
2021/08/03 13:19:48;;;;;;;7.28;3.65;;;;;;;;;;5026087;28;20497;-89
2021/08/03 13:22:13;;;;;;;5.57;2.75;;;;;;;;;;5019186;28;20363;-88
2021/08/03 13:24:39;;;;;;;6.90;2.90;;;;;;;;;;5014340;28;20037;-89
2021/08/03 13:27:04;;;;;;;9.00;3.53;;;;;;;;;;5028986;28;20025;-89
2021/08/03 13:29:29;;;;;;;4.55;3.10;;;;;;;;;;5017300;28;20108;-88
2021/08/03 13:31:54;;;;;;;8.18;2.83;;;;;;;;;;5016549;28;20022;-88
2021/08/03 13:34:19;;;;;;;6.78;2.95;;;;;;;;;;5017311;28;20022;-88
2021/08/03 13:36:45;;;;;;;3.47;2.65;;;;;;;;;;5013789;28;20525;-89
2021/08/03 13:39:10;;;;;;;3.53;2.80;;;;;;;;;;5022110;28;20014;-89
2021/08/03 13:41:35;;;;;;;5.80;3.08;;;;;;;;;;5015042;28;20029;-89
2021/08/03 13:44:01;;;;;;;4.28;2.83;;;;;;;;;;5019910;28;20018;-89
2021/08/03 13:46:26;;;;;;;3.63;2.90;;;;;;;;;;5046493;28;20069;-88
2021/08/03 13:48:51;;;;;;;3.83;2.83;;;;;;;;;;5020020;28;20036;-89
2021/08/03 13:51:16;;;;;;;8.95;4.05;;;;;;;;;;5013229;28;20120;-88
2021/08/03 13:53:42;;;;;;;5.13;3.72;;;;;;;;;;5017560;28;20410;-89
2021/08/03 13:56:10;;;;;;;6.15;3.55;;;;;;;;;;5016530;28;20017;-89
2021/08/03 13:58:35;;;;;;;9.82;3.63;;;;;;;;;;5012662;28;20049;-89
2021/08/03 14:01:01;;;;;;;5.90;3.63;;;;;;;;;;5056399;28;20049;-89
2021/08/03 14:03:26;;;;;;;6.63;3.80;;;;;;;;;;5009948;28;20022;-88
2021/08/03 14:05:51;;;;;;;6.32;3.58;;;;;;;;;;5013165;28;20104;-89
2021/08/03 14:08:17;;;;;;;5.70;3.63;;;;;;;;;;5046746;28;20040;-89
2021/08/03 14:10:42;;;;;;;9.13;4.20;;;;;;;;;;5020023;28;20481;-88
2021/08/03 14:13:07;;;;;;;6.20;4.00;;;;;;;;;;5045658;28;20029;-88
2021/08/03 14:15:33;;;;;;;10.35;4.40;;;;;;;;;;5047927;28;20028;-88
2021/08/03 14:17:58;;;;;;;6.18;3.92;;;;;;;;;;5051121;28;20421;-89
2021/08/03 14:20:23;;;;;;;8.77;4.50;;;;;;;;;;5046376;28;20021;-89
2021/08/03 14:22:48;;;;;;;6.40;3.92;;;;;;;;;;5016463;28;20033;-88
2021/08/03 14:25:14;;;;;;;7.63;4.70;;;;;;;;;;5020357;28;20529;-89
2021/08/03 14:27:39;;;;;;;6.18;3.85;;;;;;;;;;5012710;28;20032;-89
2021/08/03 14:30:04;;;;;;;6.55;3.58;;;;;;;;;;5019121;28;20056;-88
2021/08/03 14:32:30;;;;;;;5.53;3.00;;;;;;;;;;5026059;28;20097;-89
2021/08/03 14:34:55;;;;;;;9.13;4.35;;;;;;;;;;5014273;28;20108;-88